Time;durP1;ratioP1;P1;durP2;ratioP2;P2;SDS_P1;SDS_P2;PMS_P1;PMS_P2;Temp;Humidity;BMP_temperature;BMP_pressure;BME280_temperature;BME280_humidity;BME280_pressure;Samples;Min_cycle;Max_cycle;Signal;HPM_P1;HPM_P2
2021/09/03 00:01:26;;;;;;;7.82;4.80;;;;;;;12.46;85.27;93786.75;5092579;28;20055;-80
2021/09/03 00:03:53;;;;;;;7.85;4.57;;;;;;;12.43;85.02;93791.31;5092833;28;20097;-81
2021/09/03 00:06:20;;;;;;;7.05;4.80;;;;;;;12.12;84.03;93746.47;5092388;28;20055;-82
2021/09/03 00:08:47;;;;;;;7.05;4.55;;;;;;;12.25;84.98;93786.03;5093273;28;20048;-82
2021/09/03 00:11:14;;;;;;;6.45;4.93;;;;;;;12.13;85.05;93773.81;5092824;28;20052;-82
2021/09/03 00:13:42;;;;;;;7.07;5.00;;;;;;;11.77;86.11;93782.84;5093047;28;20063;-81
2021/09/03 00:16:09;;;;;;;7.07;4.97;;;;;;;11.60;88.21;93777.31;5112840;28;20051;-81
2021/09/03 00:18:36;;;;;;;6.57;4.55;;;;;;;11.56;88.69;93778.72;5113215;28;20060;-81
2021/09/03 00:21:03;;;;;;;6.63;5.05;;;;;;;11.69;88.51;93768.41;5112832;28;20048;-81
2021/09/03 00:23:30;;;;;;;7.43;4.50;;;;;;;11.85;88.38;93779.25;5112676;28;20039;-81
2021/09/03 00:25:57;;;;;;;7.35;4.55;;;;;;;11.93;87.37;93785.97;5112675;28;20044;-80
2021/09/03 00:28:23;;;;;;;8.82;5.20;;;;;;;11.94;86.79;93778.00;5112384;28;20096;-80
2021/09/03 00:30:52;;;;;;;5.97;4.70;;;;;;;12.00;86.08;93769.47;5112714;28;20043;-80
2021/09/03 00:33:18;;;;;;;7.93;5.00;;;;;;;11.93;85.72;93767.94;5112338;28;20062;-81
2021/09/03 00:35:45;;;;;;;6.72;4.78;;;;;;;11.69;86.35;93758.09;5112579;28;20048;-81
2021/09/03 00:38:12;;;;;;;6.65;4.78;;;;;;;11.68;87.11;93764.25;5112303;28;20044;-82
2021/09/03 00:40:39;;;;;;;8.02;4.85;;;;;;;10.96;87.42;93654.41;5112292;28;20108;-82
2021/09/03 00:43:06;;;;;;;7.47;4.90;;;;;;;11.65;87.72;93769.78;5112436;28;20233;-82
2021/09/03 00:45:33;;;;;;;5.88;4.43;;;;;;;11.47;88.70;93742.91;5112058;28;20496;-82
2021/09/03 00:48:01;;;;;;;6.32;4.75;;;;;;;11.60;88.32;93760.13;5112247;28;20120;-82
2021/09/03 00:50:28;;;;;;;8.05;5.13;;;;;;;11.63;88.19;93759.69;5112285;28;20044;-81
2021/09/03 00:52:55;;;;;;;5.93;4.78;;;;;;;11.62;87.82;93760.69;5112103;28;20476;-81
2021/09/03 00:55:22;;;;;;;8.20;5.22;;;;;;;11.47;87.54;93739.53;5111084;28;20420;-81
2021/09/03 00:57:50;;;;;;;9.52;5.28;;;;;;;11.66;86.81;93760.31;5112127;28;20104;-80
2021/09/03 01:00:18;;;;;;;7.25;4.53;;;;;;;11.60;86.33;93759.31;5111593;28;20047;-80
2021/09/03 01:02:44;;;;;;;8.43;4.97;;;;;;;11.36;85.57;93722.97;5112077;28;20389;-80
2021/09/03 01:05:13;;;;;;;6.38;4.32;;;;;;;11.44;86.36;93751.03;5112000;28;20047;-81
2021/09/03 01:07:40;;;;;;;5.75;4.30;;;;;;;11.42;86.20;93742.72;5101500;28;20398;-80
2021/09/03 01:10:08;;;;;;;9.23;4.47;;;;;;;11.34;86.19;93742.97;5091534;28;20055;-81
2021/09/03 01:12:35;;;;;;;8.05;4.75;;;;;;;11.27;86.60;93750.69;5091234;28;20067;-80
2021/09/03 01:15:02;;;;;;;8.30;4.45;;;;;;;11.26;87.03;93748.31;5101920;28;20097;-81
2021/09/03 01:17:30;;;;;;;9.38;4.90;;;;;;;11.25;87.49;93742.34;5083710;28;20043;-81
2021/09/03 01:19:56;;;;;;;7.80;4.65;;;;;;;11.07;87.55;93722.44;5079336;28;20045;-80
2021/09/03 01:22:25;;;;;;;7.18;4.90;;;;;;;11.30;86.91;93752.06;5080708;28;20047;-81
2021/09/03 01:24:51;;;;;;;8.35;4.47;;;;;;;11.32;86.52;93755.22;5076036;28;20048;-80
2021/09/03 01:27:18;;;;;;;7.32;4.95;;;;;;;11.34;86.65;93761.75;5070469;28;20044;-80
2021/09/03 01:29:45;;;;;;;8.13;5.15;;;;;;;11.29;86.40;93760.78;5070689;28;20052;-80
2021/09/03 01:32:12;;;;;;;6.35;4.47;;;;;;;11.23;86.33;93754.63;5082516;28;20043;-80
2021/09/03 01:34:39;;;;;;;7.80;4.90;;;;;;;11.15;86.94;93747.91;5079774;28;20045;-80
2021/09/03 01:37:06;;;;;;;7.45;4.57;;;;;;;10.88;86.71;93735.06;5082095;28;20048;-79
2021/09/03 01:39:37;;;;;;;6.30;4.70;;;;;;;10.81;88.08;93747.94;5079820;28;20044;-82
2021/09/03 01:42:05;;;;;;;5.57;4.32;;;;;;;10.83;88.68;93747.72;5078779;28;20056;-82
2021/09/03 01:44:32;;;;;;;5.78;4.68;;;;;;;10.74;89.01;93741.22;5090838;28;20048;-82
2021/09/03 01:46:59;;;;;;;8.82;5.43;;;;;;;10.68;89.30;93724.78;5090266;28;20051;-82
2021/09/03 01:49:25;;;;;;;6.50;5.32;;;;;;;10.81;88.96;93734.28;5090722;28;20044;-82
2021/09/03 01:51:52;;;;;;;6.82;4.97;;;;;;;10.80;88.24;93737.84;5090456;28;21457;-82
2021/09/03 01:54:19;;;;;;;5.93;4.55;;;;;;;10.82;87.52;93743.56;5090433;28;20048;-83
2021/09/03 01:56:47;;;;;;;8.35;4.78;;;;;;;10.61;87.83;93734.28;5090278;28;20489;-83
2021/09/03 01:59:14;;;;;;;8.20;5.10;;;;;;;10.53;88.86;93730.13;5090439;28;20052;-84
2021/09/03 02:01:41;;;;;;;7.47;4.22;;;;;;;9.80;89.16;93634.78;5090385;28;20409;-83
2021/09/03 02:04:08;;;;;;;6.03;4.50;;;;;;;10.00;89.27;93667.41;5090421;28;20047;-83
2021/09/03 02:06:35;;;;;;;6.45;4.55;;;;;;;9.72;89.87;93640.88;5090163;28;20142;-84
2021/09/03 02:09:02;;;;;;;8.15;5.15;;;;;;;9.73;91.68;93649.38;5090652;28;20489;-84
2021/09/03 02:11:29;;;;;;;7.68;5.57;;;;;;;10.13;92.89;93700.00;5090792;28;20082;-81
2021/09/03 02:13:57;;;;;;;8.90;5.03;;;;;;;10.06;93.06;93694.88;5089961;28;20417;-82
2021/09/03 02:16:24;;;;;;;10.73;5.20;;;;;;;10.22;91.34;93703.16;5090020;28;20044;-81
2021/09/03 02:18:51;;;;;;;6.43;4.82;;;;;;;10.45;90.51;93715.69;5089971;28;20044;-82
2021/09/03 02:21:18;;;;;;;8.50;5.00;;;;;;;10.20;90.03;93679.47;5089738;28;20051;-81
2021/09/03 02:23:46;;;;;;;7.28;5.18;;;;;;;10.32;89.88;93700.25;5090055;28;20040;-82
2021/09/03 02:26:13;;;;;;;7.90;5.68;;;;;;;10.23;90.47;93694.50;5090059;28;20048;-82
2021/09/03 02:28:40;;;;;;;9.38;5.28;;;;;;;10.00;91.40;93673.31;5089832;28;20044;-82
2021/09/03 02:31:08;;;;;;;8.73;5.35;;;;;;;10.03;91.74;93688.34;5089996;28;20039;-82
2021/09/03 02:33:35;;;;;;;7.60;5.15;;;;;;;10.15;91.67;93711.66;5089826;28;20055;-82
2021/09/03 02:36:02;;;;;;;6.70;5.18;;;;;;;9.89;91.10;93654.16;5089841;28;20055;-82
2021/09/03 02:38:29;;;;;;;8.10;4.88;;;;;;;10.30;90.61;93705.56;5089838;28;20048;-81
2021/09/03 02:40:56;;;;;;;8.50;5.97;;;;;;;10.32;90.86;93701.03;5089351;28;20063;-81
2021/09/03 02:43:22;;;;;;;9.02;6.72;;;;;;;9.83;90.28;93633.63;5089409;28;20488;-81
2021/09/03 02:45:49;;;;;;;8.75;6.43;;;;;;;10.01;90.77;93656.16;5089444;28;20130;-81
2021/09/03 02:48:18;;;;;;;8.38;5.80;;;;;;;9.95;90.52;93649.25;5089528;28;20139;-82
2021/09/03 02:50:45;;;;;;;9.27;6.15;;;;;;;9.49;90.63;93575.31;5089544;28;20048;-81
2021/09/03 02:53:12;;;;;;;9.48;5.53;;;;;;;10.12;91.67;93685.59;5085435;28;20051;-82
2021/09/03 02:55:39;;;;;;;9.18;6.13;;;;;;;9.85;92.43;93665.78;5087573;28;20052;-82
2021/09/03 02:58:09;;;;;;;10.00;6.03;;;;;;;9.87;92.45;93676.63;5089457;28;20059;-85
2021/09/03 03:00:36;;;;;;;13.65;6.82;;;;;;;9.84;92.77;93686.50;5089837;28;20424;-82
2021/09/03 03:03:03;;;;;;;10.70;5.93;;;;;;;9.34;92.69;93600.31;5090132;28;20068;-80
2021/09/03 03:05:31;;;;;;;8.02;5.80;;;;;;;10.07;92.22;93708.47;5089464;28;20039;-80
2021/09/03 03:07:58;;;;;;;10.80;5.80;;;;;;;10.08;91.77;93699.78;5088830;28;20047;-80
2021/09/03 03:10:25;;;;;;;12.68;5.80;;;;;;;9.92;91.12;93678.66;5089586;28;20466;-80
2021/09/03 03:12:54;;;;;;;9.55;6.57;;;;;;;9.56;90.76;93638.66;5089252;28;20063;-80
2021/09/03 03:15:21;;;;;;;10.77;5.53;;;;;;;9.43;91.14;93653.03;5088860;28;20509;-79
2021/09/03 03:17:48;;;;;;;8.10;5.63;;;;;;;9.55;90.70;93681.50;5088901;28;20072;-80
2021/09/03 03:20:16;;;;;;;7.75;5.38;;;;;;;8.82;91.40;93580.19;5092894;28;20524;-80
2021/09/03 03:22:45;;;;;;;8.18;5.53;;;;;;;9.43;91.99;93690.69;5093114;28;20138;-80
2021/09/03 03:25:12;;;;;;;7.10;5.43;;;;;;;9.65;92.33;93717.03;5093298;28;20091;-80
2021/09/03 03:27:39;;;;;;;8.02;5.40;;;;;;;9.37;92.37;93689.69;5093328;28;20055;-80
2021/09/03 03:30:08;;;;;;;7.70;4.85;;;;;;;9.59;92.58;93722.94;5093662;28;20048;-80
2021/09/03 03:32:35;;;;;;;7.15;4.97;;;;;;;9.54;92.57;93718.34;5092808;28;20064;-80
2021/09/03 03:35:02;;;;;;;10.13;5.65;;;;;;;9.42;93.08;93713.00;5093489;28;20048;-80
2021/09/03 03:37:29;;;;;;;10.20;5.32;;;;;;;9.34;93.53;93715.69;5092847;28;20092;-80
2021/09/03 03:39:57;;;;;;;7.57;5.32;;;;;;;9.09;94.49;93696.41;5093733;28;20052;-81
2021/09/03 03:42:24;;;;;;;9.02;5.90;;;;;;;9.33;95.06;93739.75;5093344;28;20051;-80
2021/09/03 03:44:50;;;;;;;9.20;5.93;;;;;;;9.32;94.90;93738.16;5092958;28;20048;-80
2021/09/03 03:47:17;;;;;;;8.27;5.35;;;;;;;9.20;94.52;93728.44;5092882;28;20060;-80
2021/09/03 03:49:44;;;;;;;6.53;5.38;;;;;;;8.86;94.82;93680.50;5093129;28;20044;-80
2021/09/03 03:52:11;;;;;;;8.02;5.97;;;;;;;9.11;94.83;93715.97;5092977;28;20052;-80
2021/09/03 03:54:38;;;;;;;8.80;5.90;;;;;;;9.32;95.38;93754.34;5092465;28;20113;-80
2021/09/03 03:57:07;;;;;;;11.93;6.38;;;;;;;8.95;95.34;93703.22;5092924;28;20048;-80
2021/09/03 03:59:33;;;;;;;9.18;6.43;;;;;;;8.69;95.25;93670.53;5092982;28;20071;-79
2021/09/03 04:02:00;;;;;;;10.50;6.03;;;;;;;8.92;95.52;93684.88;5092625;28;20058;-80
2021/09/03 04:04:27;;;;;;;9.60;6.40;;;;;;;8.94;95.35;93693.97;5092837;28;20785;-80
2021/09/03 04:06:54;;;;;;;13.32;6.95;;;;;;;8.45;95.36;93626.44;5092370;28;20052;-79
2021/09/03 04:09:21;;;;;;;11.75;7.45;;;;;;;8.70;94.94;93669.56;5092559;28;20040;-79
2021/09/03 04:11:49;;;;;;;13.15;7.00;;;;;;;9.37;95.13;93758.91;5092505;28;20595;-79
2021/09/03 04:14:18;;;;;;;12.75;7.20;;;;;;;9.16;95.48;93744.41;5092249;28;20153;-79
2021/09/03 04:16:45;;;;;;;13.07;7.20;;;;;;;9.35;95.13;93756.53;5092232;28;20048;-79
2021/09/03 04:19:12;;;;;;;15.60;6.63;;;;;;;9.42;94.53;93755.78;5092235;28;20094;-79
2021/09/03 04:21:39;;;;;;;14.80;5.97;;;;;;;8.55;93.66;93613.31;5092233;28;20060;-79
2021/09/03 04:24:06;;;;;;;12.80;6.00;;;;;;;9.45;92.71;93752.84;5092518;28;20562;-79
2021/09/03 04:26:33;;;;;;;13.18;6.53;;;;;;;9.44;92.68;93754.59;5092329;28;20044;-80
2021/09/03 04:29:00;;;;;;;15.60;6.90;;;;;;;9.36;92.73;93752.19;5092158;28;20044;-80
2021/09/03 04:31:28;;;;;;;9.77;6.03;;;;;;;9.38;92.90;93752.78;5092248;28;20102;-80
2021/09/03 04:33:55;;;;;;;10.13;5.78;;;;;;;9.16;92.53;93713.63;5091961;28;20304;-80
2021/09/03 04:36:22;;;;;;;11.30;6.07;;;;;;;9.35;93.01;93732.66;5092271;28;20052;-82
2021/09/03 04:38:48;;;;;;;12.32;6.20;;;;;;;9.45;92.47;93750.28;5092123;28;20466;-81
2021/09/03 04:41:15;;;;;;;11.20;6.53;;;;;;;9.45;92.65;93753.63;5091871;28;20353;-80
2021/09/03 04:43:42;;;;;;;11.35;6.57;;;;;;;9.47;92.68;93756.81;5092231;28;20067;-81
2021/09/03 04:46:09;;;;;;;10.10;6.32;;;;;;;9.50;92.87;93758.19;5091711;28;20507;-80
2021/09/03 04:48:37;;;;;;;12.55;6.38;;;;;;;9.47;92.68;93743.97;5091936;28;20055;-80
2021/09/03 04:51:04;;;;;;;9.90;6.70;;;;;;;9.31;92.18;93721.22;5091906;28;20055;-80
2021/09/03 04:53:31;;;;;;;13.25;7.10;;;;;;;9.62;92.27;93753.31;5091840;28;20055;-81
2021/09/03 04:55:58;;;;;;;12.52;7.00;;;;;;;9.63;92.29;93754.91;5091377;28;20051;-81
2021/09/03 04:58:25;;;;;;;14.43;7.72;;;;;;;9.61;92.74;93738.91;5091824;28;20424;-82
2021/09/03 05:00:52;;;;;;;14.65;7.80;;;;;;;9.69;92.87;93745.66;5091417;28;20079;-80
2021/09/03 05:03:19;;;;;;;9.88;6.90;;;;;;;9.67;93.25;93737.38;5091273;28;20420;-80
2021/09/03 05:05:47;;;;;;;11.38;6.80;;;;;;;9.75;93.72;93740.56;5091431;28;20058;-80
2021/09/03 05:08:14;;;;;;;13.63;6.90;;;;;;;9.87;92.94;93737.44;5091375;28;20055;-80
2021/09/03 05:10:41;;;;;;;15.90;7.28;;;;;;;9.93;93.41;93734.13;5091572;28;20059;-80
2021/09/03 05:13:07;;;;;;;14.77;7.55;;;;;;;9.89;93.15;93723.44;5091122;28;20051;-80
2021/09/03 05:15:38;;;;;;;18.30;8.10;;;;;;;9.82;93.15;93701.31;5091610;28;20479;-79
2021/09/03 05:18:05;;;;;;;17.95;7.88;;;;;;;10.13;93.74;93743.63;5091461;28;20044;-79
2021/09/03 05:20:32;;;;;;;24.15;8.95;;;;;;;10.11;93.39;93736.16;5091392;28;20047;-79
2021/09/03 05:23:00;;;;;;;20.95;7.85;;;;;;;10.00;92.64;93701.56;5080070;28;20044;-81
2021/09/03 05:25:27;;;;;;;32.05;10.40;;;;;;;10.27;92.84;93729.06;5091065;28;20048;-80
2021/09/03 05:27:54;;;;;;;23.55;8.98;;;;;;;10.48;92.26;93735.84;5090970;28;20071;-79
2021/09/03 05:30:21;;;;;;;17.05;7.90;;;;;;;10.64;92.62;93744.94;5091051;28;20040;-79
2021/09/03 05:32:48;;;;;;;28.15;10.52;;;;;;;10.76;91.21;93742.59;5091179;28;20411;-80
2021/09/03 05:35:15;;;;;;;21.25;10.70;;;;;;;10.82;91.77;93726.38;5090885;28;20048;-81
2021/09/03 05:37:42;;;;;;;19.92;9.30;;;;;;;10.92;90.78;93715.69;5090692;28;20044;-81
2021/09/03 05:40:12;;;;;;;21.42;8.77;;;;;;;11.13;89.40;93726.75;5090922;28;20094;-81
2021/09/03 05:42:38;;;;;;;27.83;9.77;;;;;;;11.39;89.17;93745.69;5090287;28;20117;-80
2021/09/03 05:45:06;;;;;;;14.73;7.70;;;;;;;11.65;87.87;93753.56;5090692;28;21076;-81
2021/09/03 05:47:33;;;;;;;17.80;8.05;;;;;;;11.49;87.44;93717.78;5090892;28;20056;-81
2021/09/03 05:50:00;;;;;;;13.38;7.50;;;;;;;11.51;86.22;93699.56;5090357;28;20040;-81
2021/09/03 05:52:27;;;;;;;11.82;7.10;;;;;;;11.83;85.37;93719.44;5090424;28;20060;-81
2021/09/03 05:54:54;;;;;;;9.77;6.28;;;;;;;12.18;83.94;93747.47;5090326;28;20052;-81
2021/09/03 05:57:22;;;;;;;13.38;6.93;;;;;;;12.38;84.45;93749.94;5090983;28;20400;-81
2021/09/03 05:59:50;;;;;;;11.93;5.82;;;;;;;12.34;83.94;93745.38;5090370;28;20980;-81
2021/09/03 06:02:17;;;;;;;14.25;7.22;;;;;;;12.63;82.11;93750.97;5090555;28;20081;-81
2021/09/03 06:04:44;;;;;;;10.77;5.25;;;;;;;12.66;82.12;93753.91;5090503;28;20048;-81
2021/09/03 06:07:11;;;;;;;11.57;6.60;;;;;;;12.56;82.51;93735.53;5090479;28;20048;-82
2021/09/03 06:09:37;;;;;;;13.43;7.32;;;;;;;12.87;82.94;93736.50;5086058;28;20058;-82
2021/09/03 06:12:05;;;;;;;10.38;7.22;;;;;;;12.87;80.82;93687.50;5088072;28;20500;-82
2021/09/03 06:14:34;;;;;;;11.30;5.97;;;;;;;13.41;81.17;93737.81;5089776;28;20056;-82
2021/09/03 06:17:01;;;;;;;12.95;6.05;;;;;;;13.15;80.09;93673.38;5090182;28;20044;-82
2021/09/03 06:19:28;;;;;;;13.15;6.05;;;;;;;13.51;78.79;93683.94;5089818;28;20056;-83
2021/09/03 06:21:57;;;;;;;11.57;6.40;;;;;;;13.86;78.20;93729.03;5090204;28;20062;-83
2021/09/03 06:24:29;;;;;;;11.95;6.25;;;;;;;14.07;77.74;93737.34;5089913;28;20051;-83
2021/09/03 06:26:57;;;;;;;18.00;8.38;;;;;;;14.18;76.88;93728.84;5089889;28;20052;-83
2021/09/03 06:29:40;;;;;;;52.63;22.83;;;;;;;14.24;74.05;93730.56;5090110;28;20055;-82
2021/09/03 06:32:10;;;;;;;23.38;11.43;;;;;;;14.25;75.14;93698.53;5089843;28;20158;-81
2021/09/03 06:34:39;;;;;;;22.50;10.85;;;;;;;14.46;74.42;93680.16;5089629;28;20067;-83
2021/09/03 06:37:07;;;;;;;46.25;19.48;;;;;;;15.07;72.24;93709.28;5089415;28;20054;-83
2021/09/03 06:39:34;;;;;;;31.08;13.85;;;;;;;15.44;70.32;93744.47;5089763;28;20408;-83
2021/09/03 06:42:01;;;;;;;20.80;9.85;;;;;;;15.32;69.05;93717.81;5089380;28;20051;-83
2021/09/03 06:44:29;;;;;;;20.00;9.50;;;;;;;15.36;69.33;93672.34;5089270;28;20575;-84
2021/09/03 06:46:56;;;;;;;16.83;8.70;;;;;;;15.41;67.83;93662.09;5089225;28;20114;-84
2021/09/03 06:49:25;;;;;;;20.80;9.00;;;;;;;15.69;67.30;93644.25;5089761;28;20121;-83
2021/09/03 06:51:52;;;;;;;14.50;7.35;;;;;;;16.22;67.43;93740.03;5089479;28;20066;-83
2021/09/03 06:54:18;;;;;;;15.15;7.78;;;;;;;16.64;64.55;93742.34;5068301;28;20056;-83
2021/09/03 06:56:46;;;;;;;15.73;7.10;;;;;;;16.49;62.44;93718.75;5069364;28;20060;-83
2021/09/03 06:59:13;;;;;;;12.07;5.88;;;;;;;16.80;61.29;93743.38;5069079;28;20507;-83
2021/09/03 07:01:40;;;;;;;13.80;6.85;;;;;;;16.75;62.10;93745.09;5068855;28;20057;-84
2021/09/03 07:04:07;;;;;;;14.95;6.57;;;;;;;16.34;62.24;93694.13;5069114;28;20051;-85
2021/09/03 07:06:35;;;;;;;14.15;6.30;;;;;;;16.25;62.62;93688.53;5068884;28;20489;-83
2021/09/03 07:09:04;;;;;;;13.65;6.70;;;;;;;16.35;62.46;93656.03;5068931;28;20492;-84
2021/09/03 07:11:32;;;;;;;17.35;5.30;;;;;;;17.14;59.88;93736.63;5069213;28;20124;-83
2021/09/03 07:13:59;;;;;;;23.23;6.85;;;;;;;17.57;61.75;93736.97;5068547;28;20048;-84
2021/09/03 07:16:26;;;;;;;16.13;5.68;;;;;;;17.65;57.95;93740.94;5068924;28;20040;-84
2021/09/03 07:18:53;;;;;;;20.08;6.90;;;;;;;17.69;59.27;93690.09;5068953;28;20056;-85
2021/09/03 07:21:20;;;;;;;16.80;5.50;;;;;;;18.48;58.41;93742.69;5068556;28;20048;-83
2021/09/03 07:23:48;;;;;;;23.40;6.32;;;;;;;18.42;55.17;93687.22;5064797;28;20045;-84
2021/09/03 07:26:15;;;;;;;20.58;5.57;;;;;;;17.83;56.60;93656.72;5067176;28;20053;-84
2021/09/03 07:28:42;;;;;;;20.52;6.47;;;;;;;18.08;56.31;93637.25;5068415;28;20094;-83
2021/09/03 07:31:09;;;;;;;31.48;8.35;;;;;;;18.27;54.68;93752.88;5068768;28;20044;-86
2021/09/03 07:33:36;;;;;;;45.05;9.95;;;;;;;18.50;56.73;93753.63;5068749;28;20052;-85
2021/09/03 07:36:03;;;;;;;33.30;8.90;;;;;;;18.02;55.05;93647.56;5068844;28;20401;-87
2021/09/03 07:38:31;;;;;;;30.98;8.02;;;;;;;19.12;52.89;93752.59;5068368;28;20052;-83
2021/09/03 07:40:59;;;;;;;24.15;6.13;;;;;;;19.12;55.03;93697.94;5068780;28;20492;-82
2021/09/03 07:43:26;;;;;;;34.05;6.95;;;;;;;19.44;52.82;93700.44;5068865;28;20049;-83
2021/09/03 07:45:54;;;;;;;19.27;5.75;;;;;;;18.91;51.41;93682.94;5068255;28;20528;-83
2021/09/03 07:48:21;;;;;;;16.38;5.50;;;;;;;19.19;52.16;93747.97;5068697;28;20051;-83
2021/09/03 07:50:48;;;;;;;22.20;5.38;;;;;;;19.23;53.85;93687.34;5068755;28;20048;-82
2021/09/03 07:53:15;;;;;;;17.08;4.88;;;;;;;19.77;52.56;93695.91;5068791;28;20417;-82
2021/09/03 07:55:43;;;;;;;10.38;4.82;;;;;;;19.93;48.49;93658.66;5068375;28;20526;-82
2021/09/03 07:58:11;;;;;;;11.00;3.85;;;;;;;20.52;49.16;93717.53;5068459;28;20048;-83
2021/09/03 08:00:39;;;;;;;11.40;4.43;;;;;;;20.85;47.52;93719.91;5068383;28;20088;-85
2021/09/03 08:03:06;;;;;;;8.35;4.18;;;;;;;20.90;46.16;93704.25;5068941;28;20055;-84
2021/09/03 08:05:35;;;;;;;14.63;4.78;;;;;;;20.44;45.93;93691.94;5071106;28;20048;-84
2021/09/03 08:08:03;;;;;;;15.05;5.18;;;;;;;20.15;47.67;93608.94;5072921;28;20056;-84
2021/09/03 08:10:32;;;;;;;14.80;4.72;;;;;;;21.04;46.50;93701.09;5072890;28;20056;-83
2021/09/03 08:12:59;;;;;;;13.40;5.03;;;;;;;20.76;43.17;93654.34;5072516;28;20143;-83
2021/09/03 08:15:27;;;;;;;8.32;4.22;;;;;;;19.29;46.52;93637.84;5071786;28;20500;-82
2021/09/03 08:17:55;;;;;;;10.88;4.55;;;;;;;19.25;47.55;93648.00;5072224;28;20048;-83
2021/09/03 08:20:23;;;;;;;10.07;4.40;;;;;;;19.17;47.67;93701.34;5071784;28;20560;-83
2021/09/03 08:22:51;;;;;;;7.82;4.20;;;;;;;19.36;47.09;93698.34;5071910;28;20496;-84
2021/09/03 08:25:18;;;;;;;10.85;4.45;;;;;;;19.43;47.21;93687.66;5071801;28;20057;-82
2021/09/03 08:27:46;;;;;;;8.57;4.00;;;;;;;18.67;48.42;93643.47;5077078;28;20048;-82
2021/09/03 08:30:14;;;;;;;10.73;4.55;;;;;;;19.18;50.12;93671.69;5076982;28;20056;-83
2021/09/03 08:32:43;;;;;;;7.30;4.00;;;;;;;19.56;48.65;93636.94;5072272;28;20048;-83
2021/09/03 08:35:10;;;;;;;8.32;3.60;;;;;;;20.50;46.21;93692.72;5072395;28;20408;-83
2021/09/03 08:37:39;;;;;;;7.60;3.88;;;;;;;20.72;42.99;93702.09;5071873;28;20461;-83
2021/09/03 08:40:07;;;;;;;10.05;4.00;;;;;;;20.79;42.06;93681.78;5072011;28;20412;-82
2021/09/03 08:42:36;;;;;;;8.35;4.20;;;;;;;19.74;44.54;93688.63;5071726;28;20053;-83
2021/09/03 08:45:03;;;;;;;10.38;4.00;;;;;;;19.75;43.98;93619.00;5071655;28;20045;-82
2021/09/03 08:47:31;;;;;;;11.50;4.07;;;;;;;20.32;46.51;93673.13;5071233;28;20056;-82
2021/09/03 08:49:59;;;;;;;10.70;3.97;;;;;;;20.55;47.51;93612.59;5071510;28;20049;-82
2021/09/03 08:52:26;;;;;;;16.40;4.32;;;;;;;21.47;45.08;93675.41;5071529;28;20044;-82
2021/09/03 08:54:53;;;;;;;11.20;5.05;;;;;;;21.75;44.52;93664.59;5071560;28;20056;-81
2021/09/03 08:57:20;;;;;;;13.57;4.28;;;;;;;21.98;43.66;93626.56;5071653;28;20055;-82
2021/09/03 08:59:47;;;;;;;10.07;4.05;;;;;;;21.96;41.79;93562.50;5071282;28;20404;-82
2021/09/03 09:02:16;;;;;;;11.50;3.85;;;;;;;23.03;39.66;93671.09;5071033;28;20057;-83
2021/09/03 09:04:44;;;;;;;10.68;3.97;;;;;;;22.58;38.65;93617.00;5071110;28;20405;-84
2021/09/03 09:07:13;;;;;;;13.32;3.90;;;;;;;22.49;39.66;93657.91;5071319;28;20040;-84
2021/09/03 09:09:42;;;;;;;9.13;3.88;;;;;;;22.05;39.76;93581.00;5071085;28;20048;-83
2021/09/03 09:12:11;;;;;;;8.48;3.63;;;;;;;22.55;40.03;93592.16;5071215;28;20102;-84
2021/09/03 09:15:04;;;;;;;8.40;3.42;;;;;;;22.63;37.19;93673.81;5070905;28;20439;-84
2021/09/03 09:17:33;;;;;;;11.07;3.80;;;;;;;23.20;40.32;93671.44;5070047;28;20052;-82
2021/09/03 09:20:01;;;;;;;10.05;3.17;;;;;;;23.31;37.83;93656.44;5070861;28;20101;-83
2021/09/03 09:22:31;;;;;;;9.75;3.67;;;;;;;23.47;37.71;93603.84;5070518;28;20048;-82
2021/09/03 09:25:19;;;;;;;9.98;3.53;;;;;;;24.20;36.93;93669.28;5070932;28;20408;-82
2021/09/03 09:27:46;;;;;;;8.10;3.45;;;;;;;23.81;36.78;93560.91;5071083;28;20059;-82
2021/09/03 09:30:21;;;;;;;7.75;3.10;;;;;;;24.30;33.12;93642.09;5070798;28;20537;-83
2021/09/03 09:33:23;;;;;;;12.75;3.83;;;;;;;24.18;34.04;93650.44;5070952;28;20051;-82
2021/09/03 09:35:52;;;;;;;15.68;4.10;;;;;;;22.31;35.31;93565.13;5063884;28;20402;-83
2021/09/03 09:38:24;;;;;;;9.25;3.08;;;;;;;23.48;37.87;93644.72;5070356;28;20170;-85
2021/09/03 09:40:52;;;;;;;8.32;4.00;;;;;;;22.93;37.35;93596.81;5071080;28;20060;-84
2021/09/03 09:43:31;;;;;;;11.45;3.67;;;;;;;23.49;37.55;93652.31;5070480;28;20053;-83
2021/09/03 09:46:24;;;;;;;14.50;4.53;;;;;;;23.81;37.24;93630.94;5070254;28;20055;-82
2021/09/03 09:49:12;;;;;;;5.35;2.63;;;;;;;23.49;36.04;93583.38;5070704;28;20097;-85
2021/09/03 09:51:44;;;;;;;10.27;3.40;;;;;;;23.63;37.27;93541.50;5069831;28;20086;-82
2021/09/03 09:54:15;;;;;;;8.57;3.58;;;;;;;24.71;36.89;93638.06;5058367;28;20416;-84
2021/09/03 09:56:44;;;;;;;5.50;3.33;;;;;;;25.10;35.66;93633.50;5057767;28;20064;-83
2021/09/03 09:59:12;;;;;;;6.35;3.03;;;;;;;24.80;35.27;93586.44;5059107;28;20048;-84
2021/09/03 10:01:40;;;;;;;12.25;3.92;;;;;;;25.21;35.57;93597.28;5059175;28;20070;-83
2021/09/03 10:04:09;;;;;;;6.20;3.03;;;;;;;25.39;34.57;93626.38;5060878;28;20493;-84
2021/09/03 10:06:38;;;;;;;10.15;3.00;;;;;;;25.31;33.85;93580.53;5059734;28;20051;-83
2021/09/03 10:09:08;;;;;;;6.63;3.20;;;;;;;24.73;34.29;93620.19;5058425;28;20064;-83
2021/09/03 10:11:39;;;;;;;10.20;4.20;;;;;;;23.90;35.93;93555.81;5050339;28;20068;-85
2021/09/03 10:14:09;;;;;;;10.10;4.45;;;;;;;24.00;35.36;93550.41;5052467;28;20056;-86
2021/09/03 10:16:37;;;;;;;7.00;3.55;;;;;;;23.45;36.79;93608.56;5049715;28;20080;-84
2021/09/03 10:19:07;;;;;;;5.13;3.33;;;;;;;23.53;36.82;93625.53;5062871;28;20127;-84
2021/09/03 10:21:37;;;;;;;11.40;3.17;;;;;;;23.62;37.35;93569.53;5071071;28;20139;-83
2021/09/03 10:24:17;;;;;;;14.93;3.53;;;;;;;24.68;37.30;93625.53;5069479;28;20090;-82
2021/09/03 10:26:48;;;;;;;6.05;3.35;;;;;;;24.61;35.24;93541.84;5070278;28;20135;-82
2021/09/03 10:29:23;;;;;;;7.68;3.40;;;;;;;24.09;35.69;93542.69;5070171;28;20171;-83
2021/09/03 10:32:13;;;;;;;6.60;3.40;;;;;;;24.02;35.56;93511.53;5069895;28;20603;-82
2021/09/03 10:34:47;;;;;;;10.65;4.53;;;;;;;24.75;35.58;93583.88;5060886;28;20052;-81
2021/09/03 10:37:23;;;;;;;5.82;3.35;;;;;;;25.06;35.70;93578.13;5066524;28;20048;-83
2021/09/03 10:39:52;;;;;;;5.63;3.08;;;;;;;25.48;35.71;93599.13;5069866;28;20408;-81
2021/09/03 10:42:47;;;;;;;5.38;2.95;;;;;;;25.06;34.82;93564.97;5069585;28;20151;-84
2021/09/03 10:45:17;;;;;;;5.40;3.03;;;;;;;25.60;34.95;93597.88;5069893;28;21126;-81
2021/09/03 10:47:46;;;;;;;10.18;3.42;;;;;;;25.37;33.70;93583.84;5069712;28;20066;-83
2021/09/03 10:50:22;;;;;;;8.70;3.22;;;;;;;25.72;33.39;93589.47;5069380;28;20493;-82
2021/09/03 10:53:10;;;;;;;;;;;;;;;25.99;33.37;93590.47;5069985;28;20048;-82
2021/09/03 10:56:12;;;;;;;10.35;3.25;;;;;;;25.63;32.35;93546.53;5068807;28;20373;-82
2021/09/03 10:58:51;;;;;;;10.95;3.08;;;;;;;26.02;33.60;93558.28;5037086;28;20059;-81
2021/09/03 11:01:38;;;;;;;7.72;3.10;;;;;;;25.86;32.11;93515.75;5069433;28;20052;-82
2021/09/03 11:04:15;;;;;;;7.85;3.13;;;;;;;26.08;29.59;93583.41;5069454;28;20409;-82
2021/09/03 11:06:50;;;;;;;5.30;3.00;;;;;;;25.86;31.47;93590.22;5069567;28;20052;-84
2021/09/03 11:09:23;;;;;;;3.25;2.15;;;;;;;25.03;32.13;93536.63;5069325;28;20048;-84
2021/09/03 11:11:52;;;;;;;4.90;2.78;;;;;;;25.19;31.95;93566.03;5069484;28;20094;-81
2021/09/03 11:14:23;;;;;;;6.13;2.67;;;;;;;25.71;31.69;93577.38;5088868;28;20412;-81
2021/09/03 11:16:54;;;;;;;5.35;2.65;;;;;;;25.89;32.31;93579.06;5089373;28;20413;-81
2021/09/03 11:19:22;;;;;;;4.95;2.42;;;;;;;25.27;30.61;93548.03;5088953;28;20055;-81
2021/09/03 11:21:51;;;;;;;4.88;3.13;;;;;;;24.88;31.16;93557.94;5089106;28;20051;-83
2021/09/03 11:24:20;;;;;;;6.25;2.90;;;;;;;24.76;31.43;93553.16;5089251;28;20396;-83
2021/09/03 11:26:48;;;;;;;8.00;3.15;;;;;;;25.49;32.76;93568.34;5089211;28;20508;-82
2021/09/03 11:29:22;;;;;;;5.55;2.63;;;;;;;25.72;32.41;93571.03;5089450;28;20143;-84
2021/09/03 11:32:01;;;;;;;3.85;2.58;;;;;;;25.51;31.94;93512.81;5089337;28;20527;-84
2021/09/03 11:34:58;;;;;;;7.28;2.95;;;;;;;25.05;31.01;93533.72;5089106;28;20040;-83
2021/09/03 11:37:34;;;;;;;7.43;2.60;;;;;;;23.25;33.29;93517.84;5043664;28;20056;-82
2021/09/03 11:40:13;;;;;;;6.63;2.88;;;;;;;23.45;34.36;93556.16;5090836;28;20048;-82